createdAt,value
2023-05-18T00:01:58.586Z,11.3
2023-05-18T00:07:37.306Z,11.3
2023-05-18T00:12:58.019Z,11.3
2023-05-18T00:18:20.566Z,11.2
2023-05-18T00:23:41.545Z,11.2
2023-05-18T00:29:01.790Z,11.2
2023-05-18T00:34:39.224Z,11.1
2023-05-18T00:40:16.300Z,11.1
2023-05-18T00:46:08.023Z,11.1
2023-05-18T00:52:00.061Z,11.1
2023-05-18T00:57:35.984Z,11
2023-05-18T01:03:28.110Z,11
2023-05-18T01:08:48.780Z,11
2023-05-18T01:14:40.729Z,10.9
2023-05-18T01:20:32.072Z,10.9
2023-05-18T01:26:23.956Z,10.9
2023-05-18T01:31:59.896Z,10.9
2023-05-18T01:37:36.577Z,10.9
2023-05-18T01:43:30.463Z,10.8
2023-05-18T01:49:07.802Z,10.9
2023-05-18T01:54:43.779Z,10.8
2023-05-18T02:00:20.280Z,10.8
2023-05-18T02:06:14.052Z,10.8
2023-05-18T02:11:49.272Z,10.8
2023-05-18T02:17:41.249Z,10.8
2023-05-18T02:23:35.069Z,10.8
2023-05-18T02:29:28.173Z,10.8
2023-05-18T02:35:04.719Z,10.8
2023-05-18T02:40:41.769Z,10.8
2023-05-18T02:46:33.079Z,10.8
2023-05-18T02:52:09.988Z,10.8
2023-05-18T02:58:01.399Z,10.8
2023-05-18T03:03:55.476Z,10.8
2023-05-18T03:09:48.508Z,10.8
2023-05-18T03:15:39.858Z,10.8
2023-05-18T03:21:02.099Z,10.8
2023-05-18T03:26:39.139Z,10.9
2023-05-18T03:32:15.588Z,10.9
2023-05-18T03:38:07.407Z,10.9
2023-05-18T03:43:59.915Z,10.9
2023-05-18T03:49:36.148Z,10.9
2023-05-18T03:55:27.820Z,11
2023-05-18T04:01:20.379Z,11.1
2023-05-18T04:07:15.387Z,11.1
2023-05-18T04:13:06.677Z,11.2
2023-05-18T04:18:59.580Z,11.3
2023-05-18T04:24:51.743Z,11.4
2023-05-18T04:30:43.000Z,11.4
2023-05-18T04:36:36.469Z,11.5
2023-05-18T04:42:12.250Z,11.6
2023-05-18T04:48:04.725Z,11.7
2023-05-18T04:53:57.090Z,11.8
2023-05-18T04:59:32.846Z,11.9
2023-05-18T05:05:27.856Z,12.1
2023-05-18T05:11:20.126Z,12.3
2023-05-18T05:17:11.654Z,12.4
2023-05-18T05:23:03.766Z,12.5
2023-05-18T05:28:56.665Z,12.6
2023-05-18T05:34:33.481Z,12.6
2023-05-18T05:40:25.258Z,12.6
2023-05-18T05:46:19.567Z,12.6
2023-05-18T05:52:11.497Z,12.6
2023-05-18T05:58:02.709Z,12.6
2023-05-18T06:03:55.477Z,12.6
2023-05-18T06:09:47.705Z,12.6
2023-05-18T06:15:41.681Z,12.6
2023-05-18T06:21:37.847Z,12.7
2023-05-18T06:27:29.022Z,12.9
2023-05-18T06:33:21.336Z,13.5
2023-05-18T06:38:59.128Z,14.3
2023-05-18T06:44:50.764Z,15.3
2023-05-18T06:50:27.320Z,16.7
2023-05-18T06:56:03.916Z,18.3
2023-05-18T07:01:55.319Z,19.9
2023-05-18T07:07:48.026Z,20.7
2023-05-18T07:13:09.258Z,20.9
2023-05-18T07:19:00.677Z,20.9
2023-05-18T07:24:54.948Z,20.6
2023-05-18T07:30:31.856Z,20.3
2023-05-18T07:36:23.909Z,20.1
2023-05-18T07:42:00.328Z,19.9
2023-05-18T07:47:53.406Z,19.8
2023-05-18T07:53:30.029Z,19.8
2023-05-18T07:59:05.505Z,19.8
2023-05-18T08:04:43.003Z,19.8
2023-05-18T08:10:19.521Z,19.9
2023-05-18T08:16:27.985Z,20.1
2023-05-18T08:22:05.134Z,20
2023-05-18T08:27:42.160Z,19.8
2023-05-18T08:33:19.443Z,19.6
2023-05-18T08:38:56.331Z,19.4
2023-05-18T08:44:32.754Z,19.3
2023-05-18T08:50:12.431Z,19.1
2023-05-18T08:55:49.313Z,19.1
2023-05-18T09:01:25.554Z,18.9
2023-05-18T09:07:02.694Z,18.8
2023-05-18T09:12:41.695Z,18.8
2023-05-18T09:18:17.732Z,18.9
2023-05-18T09:23:54.321Z,18.9
2023-05-18T09:29:32.383Z,18.9
2023-05-18T09:35:10.412Z,18.9
2023-05-18T09:40:47.349Z,19
2023-05-18T09:46:08.426Z,19.1
2023-05-18T09:51:29.913Z,19.1
2023-05-18T09:57:19.468Z,19.1
2023-05-18T10:02:44.084Z,19.3
2023-05-18T10:08:05.939Z,19.6
2023-05-18T10:13:27.027Z,19.9
2023-05-18T10:18:44.118Z,20.2
2023-05-18T10:23:52.787Z,20.7
2023-05-18T10:29:30.283Z,21.3
2023-05-18T10:35:27.825Z,21.8
2023-05-18T10:41:04.481Z,21.9
2023-05-18T10:45:56.842Z,21.9
2023-05-18T10:51:19.305Z,21.8
2023-05-18T10:57:38.799Z,21.4
2023-05-18T11:08:36.330Z,20.9
2023-05-18T11:13:57.274Z,20.6
2023-05-18T11:19:33.872Z,20.2
2023-05-18T11:25:25.710Z,19.9
2023-05-18T11:31:10.863Z,19.7
2023-05-18T11:36:59.042Z,19.7
2023-05-18T11:42:51.567Z,19.6
2023-05-18T11:48:11.917Z,19.1
2023-05-18T11:53:51.282Z,18.6
2023-05-18T11:59:15.312Z,17.9
2023-05-18T12:04:59.618Z,17.2
2023-05-18T12:10:35.994Z,16.8
2023-05-18T12:15:58.789Z,16.4
2023-05-18T12:21:34.455Z,16.3
2023-05-18T12:27:09.867Z,16.2
2023-05-18T12:32:47.204Z,16.1
2023-05-18T12:38:19.717Z,16.3
2023-05-18T12:43:58.106Z,16.4
2023-05-18T12:49:53.260Z,16.6
2023-05-18T12:55:46.136Z,16.9
2023-05-18T13:01:22.859Z,17.3
2023-05-18T13:07:00.436Z,17.6
2023-05-18T13:13:18.731Z,18.1
2023-05-18T13:19:11.315Z,18.8
2023-05-18T13:24:50.708Z,19.6
2023-05-18T13:30:28.567Z,20.4
2023-05-18T13:36:05.094Z,21.2
2023-05-18T13:41:42.989Z,21.5
2023-05-18T13:47:04.163Z,21.6
2023-05-18T13:52:41.364Z,21.5
2023-05-18T13:58:35.289Z,21.3
2023-05-18T14:04:27.613Z,21.1
2023-05-18T14:09:49.950Z,20.9
2023-05-18T14:15:41.817Z,20.7
2023-05-18T14:21:33.647Z,20.4
2023-05-18T14:27:24.762Z,20.1
2023-05-18T14:33:17.196Z,19.8
2023-05-18T14:39:10.058Z,19.7
2023-05-18T14:44:45.356Z,19.7
2023-05-18T14:50:56.285Z,19.6
2023-05-18T14:56:46.856Z,19.6
2023-05-18T15:02:37.561Z,19.5
2023-05-18T15:08:31.531Z,19.4
2023-05-18T15:14:06.819Z,19.4
2023-05-18T15:19:58.598Z,19.4
2023-05-18T15:25:51.061Z,19.2
2023-05-18T15:31:43.680Z,18.9
2023-05-18T15:37:35.249Z,18.4
2023-05-18T15:43:27.481Z,17.9
2023-05-18T15:49:18.666Z,17.5
2023-05-18T15:54:54.667Z,17.3
2023-05-18T16:00:46.765Z,17.1
2023-05-18T16:12:15.279Z,16.8
2023-05-18T16:17:54.905Z,16.7
2023-05-18T16:23:45.927Z,16.6
2023-05-18T16:29:07.268Z,16.4
2023-05-18T16:35:00.282Z,16.1
2023-05-18T16:40:52.386Z,15.9
2023-05-18T16:46:44.403Z,15.7
2023-05-18T16:52:39.473Z,15.5
2023-05-18T16:58:30.749Z,15.3
2023-05-18T17:04:38.971Z,15
2023-05-18T17:10:33.890Z,14.7
2023-05-18T17:16:10.520Z,14.5
2023-05-18T17:21:46.608Z,14.3
2023-05-18T17:27:50.164Z,14
2023-05-18T17:33:29.121Z,13.8
2023-05-18T17:39:20.364Z,13.5
2023-05-18T17:45:12.978Z,13.3
2023-05-18T17:51:05.138Z,13.1
2023-05-18T17:56:55.669Z,12.8
2023-05-18T18:02:32.979Z,12.6
2023-05-18T18:14:02.567Z,12.3
2023-05-18T18:19:55.683Z,12.1
2023-05-18T18:25:31.869Z,11.9
2023-05-18T18:31:08.310Z,11.8
2023-05-18T18:36:29.717Z,11.8
2023-05-18T18:42:21.765Z,11.6
2023-05-18T18:48:13.605Z,11.5
2023-05-18T18:54:05.980Z,11.4
2023-05-18T18:59:56.676Z,11.3
2023-05-18T19:05:33.051Z,11.1
2023-05-18T19:11:10.209Z,11
2023-05-18T19:17:02.677Z,10.9
2023-05-18T19:22:55.097Z,10.8
2023-05-18T19:28:47.347Z,10.6
2023-05-18T19:34:40.012Z,10.6
2023-05-18T19:40:16.432Z,10.5
2023-05-18T19:46:11.703Z,10.4
2023-05-18T19:52:03.913Z,10.3
2023-05-18T19:57:54.472Z,10.3
2023-05-18T20:03:47.608Z,10.3
2023-05-18T20:09:23.930Z,10.1
2023-05-18T20:15:15.944Z,10.1
2023-05-18T20:21:08.700Z,10.1
2023-05-18T20:26:31.930Z,10.1
2023-05-18T20:31:52.716Z,10.1
2023-05-18T20:37:45.296Z,10.1
2023-05-18T20:43:06.029Z,10.1
2023-05-18T20:48:58.072Z,10.1
2023-05-18T20:54:50.372Z,10.1
2023-05-18T21:00:41.760Z,10
2023-05-18T21:06:22.073Z,10.1
2023-05-18T21:11:59.175Z,10
2023-05-18T21:17:35.013Z,10
2023-05-18T21:23:27.038Z,10
2023-05-18T21:29:18.946Z,10
2023-05-18T21:35:11.442Z,10
2023-05-18T21:41:03.062Z,10
2023-05-18T21:46:26.959Z,10
2023-05-18T21:52:03.481Z,9.9
2023-05-18T21:57:40.584Z,9.9
2023-05-18T22:03:17.371Z,9.9
2023-05-18T22:09:08.692Z,9.8
2023-05-18T22:14:44.501Z,9.8
2023-05-18T22:20:05.921Z,9.8
2023-05-18T22:26:08.908Z,9.6
2023-05-18T22:31:45.213Z,9.6
2023-05-18T22:37:21.479Z,9.6
2023-05-18T22:42:41.605Z,9.6
2023-05-18T22:48:33.212Z,9.6
2023-05-18T22:54:09.960Z,9.6
2023-05-18T22:59:45.915Z,9.6
2023-05-18T23:05:22.119Z,9.6
2023-05-18T23:11:13.844Z,9.7
2023-05-18T23:17:05.416Z,9.7
2023-05-18T23:22:57.312Z,9.8
2023-05-18T23:28:49.281Z,9.8
2023-05-18T23:34:41.757Z,9.8
2023-05-18T23:40:33.728Z,9.8
2023-05-18T23:46:25.805Z,9.8
2023-05-18T23:52:17.706Z,9.8
2023-05-18T23:58:09.302Z,9.9
